Sawyer, Washington
Current Conditions -  °F | °C
As of 5:53 AM on Thursday 30 Oct 2014 (Local Time) from KYKM Reporting Station
Light Rain Light Rain  
Wind Chill: 51°   Ceiling: 4800
Heat Index: 51°   Visibility: 5mi
Dew Point: 49°   Wind: 5mph
Humidity: 92%   Direction: 250°WSW
Pressure: 30.07"   Gusts: NA
Location:  46.4639°N, 120.412°W
Report Text: KYKM 301253Z 25004KT 5SM -RA BR FEW040 OVC048 11/09 A3007 RMK AO2 RAB37 SLP185 P0000 T01060094
Loading
Personal Weather Stations






























Interactive Weather Map
Tropical Storm Tracking
New forecast layout! Learn more

10-Day Weather Forecast

Advertisements
Track Severe Weather on mobile